createdAt,value
2019-01-08T00:00:25.257Z,5.10
2019-01-08T00:02:51.255Z,6.27
2019-01-08T00:05:17.348Z,5.93
2019-01-08T00:07:43.343Z,5.70
2019-01-08T00:10:09.341Z,5.53
2019-01-08T00:12:35.605Z,5.37
2019-01-08T00:15:01.614Z,5.70
2019-01-08T00:17:27.626Z,5.40
2019-01-08T00:19:53.630Z,5.07
2019-01-08T00:22:19.641Z,5.43
2019-01-08T00:24:45.634Z,5.03
2019-01-08T00:27:11.666Z,4.97
2019-01-08T00:29:37.894Z,4.97
2019-01-08T00:32:03.890Z,4.70
2019-01-08T00:34:29.902Z,4.50
2019-01-08T00:36:55.895Z,4.70
2019-01-08T00:39:21.915Z,4.50
2019-01-08T00:41:47.917Z,4.10
2019-01-08T00:44:13.978Z,4.30
2019-01-08T00:46:40.211Z,3.77
2019-01-08T00:49:06.229Z,4.60
2019-01-08T00:51:32.230Z,4.40
2019-01-08T00:53:58.458Z,3.70
2019-01-08T00:56:24.471Z,4.10
2019-01-08T00:58:51.693Z,3.97
2019-01-08T01:01:17.919Z,4.00
2019-01-08T01:03:43.925Z,4.33
2019-01-08T01:06:09.948Z,4.07
2019-01-08T01:08:35.966Z,4.10
2019-01-08T01:11:02.011Z,4.13
2019-01-08T01:13:28.022Z,4.10
2019-01-08T01:15:54.041Z,4.30
2019-01-08T01:18:20.058Z,4.63
2019-01-08T01:20:46.053Z,4.13
2019-01-08T01:23:12.315Z,3.83
2019-01-08T01:25:38.319Z,3.83
2019-01-08T01:28:04.342Z,3.43
2019-01-08T01:30:30.339Z,3.30
2019-01-08T01:32:56.428Z,3.37
2019-01-08T01:35:22.504Z,3.43
2019-01-08T01:37:48.512Z,3.20
2019-01-08T01:40:14.509Z,2.93
2019-01-08T01:42:40.543Z,2.63
2019-01-08T01:45:06.797Z,2.60
2019-01-08T01:47:33.031Z,2.50
2019-01-08T01:49:59.308Z,2.57
2019-01-08T01:52:25.316Z,2.17
2019-01-08T01:54:51.336Z,2.30
2019-01-08T01:57:17.338Z,1.70
2019-01-08T01:59:43.362Z,2.00
2019-01-08T02:02:09.409Z,2.03
2019-01-08T02:04:35.451Z,1.70
2019-01-08T02:07:01.483Z,1.63
2019-01-08T02:09:27.501Z,1.60
2019-01-08T02:11:53.574Z,1.60
2019-01-08T02:14:19.594Z,1.40
2019-01-08T02:16:45.602Z,1.70
2019-01-08T02:19:11.851Z,1.50
2019-01-08T02:21:37.832Z,1.70
2019-01-08T02:24:03.839Z,1.13
2019-01-08T02:26:29.844Z,1.70
2019-01-08T02:28:55.850Z,1.50
2019-01-08T02:31:21.870Z,1.83
2019-01-08T02:33:47.875Z,1.83
2019-01-08T02:36:13.881Z,1.60
2019-01-08T02:38:39.888Z,1.87
2019-01-08T02:41:06.123Z,1.57
2019-01-08T02:43:32.128Z,1.80
2019-01-08T02:45:58.175Z,1.63
2019-01-08T02:48:24.262Z,1.50
2019-01-08T02:50:50.420Z,1.67
2019-01-08T02:53:16.432Z,1.30
2019-01-08T02:55:42.669Z,1.67
2019-01-08T02:58:08.678Z,1.50
2019-01-08T03:00:34.675Z,1.60
2019-01-08T03:03:00.914Z,1.50
2019-01-08T03:05:26.958Z,1.50
2019-01-08T03:07:52.973Z,1.40
2019-01-08T03:10:18.973Z,1.47
2019-01-08T03:12:44.996Z,1.40
2019-01-08T03:15:10.995Z,1.63
2019-01-08T03:17:37.333Z,1.33
2019-01-08T03:20:05.253Z,1.23
2019-01-08T03:22:31.837Z,1.27
2019-01-08T03:24:57.828Z,1.47
2019-01-08T03:27:23.855Z,1.90
2019-01-08T03:29:49.905Z,1.80
2019-01-08T03:32:15.918Z,1.40
2019-01-08T03:34:42.147Z,1.37
2019-01-08T03:37:08.158Z,1.13
2019-01-08T03:39:34.389Z,1.00
2019-01-08T03:42:00.450Z,1.00
2019-01-08T03:44:26.714Z,0.53
2019-01-08T03:46:52.798Z,0.47
2019-01-08T03:49:18.809Z,0.53
2019-01-08T03:51:44.926Z,0.70
2019-01-08T03:54:10.989Z,0.93
2019-01-08T03:56:36.997Z,0.77
2019-01-08T03:59:03.220Z,1.00
2019-01-08T04:01:29.241Z,0.80
2019-01-08T04:03:55.465Z,1.00
2019-01-08T04:06:21.705Z,1.03
2019-01-08T04:08:47.924Z,1.17
2019-01-08T04:11:14.171Z,2.00
2019-01-08T04:13:40.393Z,1.70
2019-01-08T04:16:06.410Z,1.60
2019-01-08T04:18:32.637Z,1.97
2019-01-08T04:20:58.641Z,1.67
2019-01-08T04:23:24.886Z,2.00
2019-01-08T04:25:50.881Z,2.30
2019-01-08T04:28:16.905Z,2.23
2019-01-08T04:30:42.911Z,1.87
2019-01-08T04:33:09.150Z,1.80
2019-01-08T04:35:35.393Z,2.67
2019-01-08T04:38:01.628Z,2.33
2019-01-08T04:40:27.629Z,1.93
2019-01-08T04:42:53.636Z,3.23
2019-01-08T04:45:19.675Z,2.20
2019-01-08T04:47:45.670Z,2.50
2019-01-08T04:50:11.673Z,1.87
2019-01-08T04:52:37.694Z,2.80
2019-01-08T04:55:03.686Z,2.07
2019-01-08T04:57:29.699Z,2.43
2019-01-08T04:59:59.057Z,2.10
2019-01-08T05:02:23.614Z,2.80
2019-01-08T05:04:49.709Z,2.17
2019-01-08T05:07:16.056Z,2.90
2019-01-08T05:09:42.029Z,2.23
2019-01-08T05:12:08.031Z,2.00
2019-01-08T05:14:34.044Z,2.67
2019-01-08T05:17:00.083Z,2.17
2019-01-08T05:19:26.319Z,2.03
2019-01-08T05:21:52.317Z,2.50
2019-01-08T05:24:18.562Z,1.93
2019-01-08T05:26:44.570Z,2.97
2019-01-08T05:29:10.579Z,2.20
2019-01-08T05:31:36.605Z,1.70
2019-01-08T05:34:02.605Z,2.40
2019-01-08T05:36:28.618Z,3.00
2019-01-08T05:38:54.625Z,2.33
2019-01-08T05:41:20.632Z,2.67
2019-01-08T05:43:46.625Z,2.77
2019-01-08T05:46:12.875Z,2.70
2019-01-08T05:48:38.885Z,2.60
2019-01-08T05:51:04.922Z,2.37
2019-01-08T05:53:30.898Z,2.53
2019-01-08T05:55:56.910Z,2.10
2019-01-08T05:58:22.912Z,2.90
2019-01-08T06:00:48.926Z,2.80
2019-01-08T06:03:15.010Z,3.03
2019-01-08T06:05:41.069Z,2.57
2019-01-08T06:08:07.064Z,2.27
2019-01-08T06:10:33.307Z,2.20
2019-01-08T06:12:59.320Z,2.50
2019-01-08T06:15:25.322Z,2.40
2019-01-08T06:17:51.614Z,2.00
2019-01-08T06:20:17.616Z,2.33
2019-01-08T06:22:43.617Z,1.77
2019-01-08T06:25:09.623Z,2.03
2019-01-08T06:27:35.634Z,2.07
2019-01-08T06:30:01.741Z,2.20
2019-01-08T06:32:27.769Z,1.77
2019-01-08T06:34:53.768Z,2.73
2019-01-08T06:37:19.785Z,1.67
2019-01-08T06:39:46.009Z,2.50
2019-01-08T06:42:12.021Z,2.60
2019-01-08T06:44:38.027Z,2.30
2019-01-08T06:47:04.062Z,2.43
2019-01-08T06:49:30.070Z,2.43
2019-01-08T06:51:56.070Z,2.37
2019-01-08T06:54:22.308Z,2.50
2019-01-08T06:56:48.324Z,2.43
2019-01-08T06:59:14.553Z,1.97
2019-01-08T07:01:40.574Z,2.17
2019-01-08T07:04:06.682Z,2.03
2019-01-08T07:06:32.777Z,2.43
2019-01-08T07:08:58.772Z,1.90
2019-01-08T07:11:25.035Z,1.60
2019-01-08T07:13:51.393Z,1.60
2019-01-08T07:16:17.468Z,2.37
2019-01-08T07:18:43.462Z,2.20
2019-01-08T07:21:09.725Z,2.10
2019-01-08T07:23:35.724Z,2.80
2019-01-08T07:26:01.737Z,2.30
2019-01-08T07:28:29.336Z,2.10
2019-01-08T07:30:55.694Z,2.40
2019-01-08T07:33:21.706Z,2.00
2019-01-08T07:35:47.710Z,1.93
2019-01-08T07:38:13.939Z,2.47
2019-01-08T07:40:41.463Z,2.23
2019-01-08T07:43:07.585Z,2.10
2019-01-08T07:45:33.609Z,2.43
2019-01-08T07:47:59.977Z,1.70
2019-01-08T07:50:25.977Z,1.93
2019-01-08T07:52:51.994Z,1.93
2019-01-08T07:55:18.233Z,2.30
2019-01-08T07:57:44.468Z,1.97
2019-01-08T08:00:10.476Z,1.80
2019-01-08T08:02:36.536Z,1.93
2019-01-08T08:05:03.728Z,1.90
2019-01-08T08:07:30.003Z,2.17
2019-01-08T08:09:56.009Z,2.13
2019-01-08T08:12:22.036Z,2.03
2019-01-08T08:14:48.039Z,1.97
2019-01-08T08:17:14.046Z,1.93
2019-01-08T08:19:40.045Z,2.20
2019-01-08T08:22:06.293Z,1.47
2019-01-08T08:24:32.290Z,1.83
2019-01-08T08:26:58.333Z,2.10
2019-01-08T08:29:24.564Z,1.60
2019-01-08T08:31:50.570Z,2.23
2019-01-08T08:34:16.577Z,2.40
2019-01-08T08:36:42.813Z,2.13
2019-01-08T08:39:08.828Z,2.00
2019-01-08T08:41:34.822Z,1.93
2019-01-08T08:44:00.915Z,2.23
2019-01-08T08:46:26.937Z,1.70
2019-01-08T08:48:53.234Z,2.13
2019-01-08T08:51:19.239Z,2.20
2019-01-08T08:53:52.450Z,1.83
2019-01-08T08:56:13.385Z,2.87
2019-01-08T08:58:39.613Z,1.83
2019-01-08T09:01:07.056Z,2.03
2019-01-08T09:03:33.457Z,1.90
2019-01-08T09:05:59.777Z,2.43
2019-01-08T09:08:25.787Z,1.60
2019-01-08T09:10:51.846Z,1.57
2019-01-08T09:13:18.079Z,2.00
2019-01-08T09:15:44.104Z,2.10
2019-01-08T09:18:10.100Z,1.90
2019-01-08T09:20:36.113Z,2.30
2019-01-08T09:23:02.114Z,1.90
2019-01-08T09:25:28.125Z,1.43
2019-01-08T09:27:54.130Z,1.80
2019-01-08T09:30:20.130Z,1.97
2019-01-08T09:32:46.151Z,2.27
2019-01-08T09:35:12.151Z,2.17
2019-01-08T09:37:38.279Z,1.90
2019-01-08T09:40:04.505Z,1.70
2019-01-08T09:42:30.525Z,2.10
2019-01-08T09:44:57.754Z,1.60
2019-01-08T09:47:23.992Z,1.50
2019-01-08T09:49:50.365Z,1.20
2019-01-08T09:52:17.218Z,1.80
2019-01-08T09:54:43.221Z,1.33
2019-01-08T09:57:09.456Z,1.60
2019-01-08T09:59:36.126Z,1.17
2019-01-08T10:02:02.126Z,1.30
2019-01-08T10:04:28.142Z,1.17
2019-01-08T10:06:54.161Z,1.00
2019-01-08T10:09:20.337Z,1.10
2019-01-08T10:11:46.332Z,1.00
2019-01-08T10:14:12.351Z,1.50
2019-01-08T10:16:38.581Z,1.60
2019-01-08T10:19:04.621Z,1.40
2019-01-08T10:21:30.722Z,1.60
2019-01-08T10:23:56.722Z,1.60
2019-01-08T10:26:22.744Z,1.37
2019-01-08T10:28:48.738Z,1.60
2019-01-08T10:31:14.785Z,2.40
2019-01-08T10:33:40.773Z,1.93
2019-01-08T10:36:06.899Z,2.07
2019-01-08T10:38:32.897Z,2.00
2019-01-08T10:40:59.136Z,1.77
2019-01-08T10:43:25.125Z,2.00
2019-01-08T10:45:51.374Z,1.97
2019-01-08T10:48:17.392Z,2.40
2019-01-08T10:50:43.414Z,2.27
2019-01-08T10:53:09.442Z,2.60
2019-01-08T10:55:35.456Z,2.97
2019-01-08T10:58:01.489Z,2.17
2019-01-08T11:00:27.620Z,2.97
2019-01-08T11:02:53.617Z,2.07
2019-01-08T11:05:19.853Z,2.30
2019-01-08T11:07:45.873Z,2.20
2019-01-08T11:10:12.113Z,2.17
2019-01-08T11:12:38.125Z,1.93
2019-01-08T11:15:06.561Z,2.03
2019-01-08T11:17:32.582Z,1.60
2019-01-08T11:19:58.585Z,2.20
2019-01-08T11:22:25.333Z,2.43
2019-01-08T11:24:51.437Z,2.07
2019-01-08T11:27:17.681Z,1.60
2019-01-08T11:29:43.914Z,1.63
2019-01-08T11:32:09.925Z,1.33
2019-01-08T11:34:35.924Z,1.50
2019-01-08T11:37:01.934Z,1.47
2019-01-08T11:39:27.937Z,1.23
2019-01-08T11:41:54.177Z,1.43
2019-01-08T11:44:20.419Z,1.67
2019-01-08T11:46:46.433Z,1.53
2019-01-08T11:49:12.661Z,1.10
2019-01-08T11:51:38.914Z,1.27
2019-01-08T11:54:04.914Z,1.60
2019-01-08T11:56:31.160Z,1.47
2019-01-08T11:58:57.387Z,1.47
2019-01-08T12:01:23.383Z,1.60
2019-01-08T12:03:49.401Z,1.20
2019-01-08T12:06:15.410Z,1.60
2019-01-08T12:08:41.433Z,1.17
2019-01-08T12:11:07.443Z,1.33
2019-01-08T12:13:33.437Z,1.73
2019-01-08T12:15:59.655Z,3.17
2019-01-08T12:18:25.899Z,2.00
2019-01-08T12:20:51.900Z,1.80
2019-01-08T12:23:17.909Z,1.27
2019-01-08T12:25:43.908Z,1.53
2019-01-08T12:28:09.917Z,1.50
2019-01-08T12:30:35.929Z,1.20
2019-01-08T12:33:01.936Z,1.40
2019-01-08T12:35:27.938Z,1.40
2019-01-08T12:37:53.953Z,1.70
2019-01-08T12:40:19.957Z,1.77
2019-01-08T12:42:46.009Z,1.97
2019-01-08T12:45:12.105Z,1.90
2019-01-08T12:47:38.349Z,1.60
2019-01-08T12:50:05.861Z,1.60
2019-01-08T12:52:31.874Z,1.87
2019-01-08T12:54:58.098Z,0.97
2019-01-08T12:57:24.346Z,1.20
2019-01-08T12:59:50.324Z,1.30
2019-01-08T13:02:16.545Z,1.30
2019-01-08T13:04:42.653Z,1.13
2019-01-08T13:07:08.658Z,1.33
2019-01-08T13:09:34.663Z,1.37
2019-01-08T13:12:00.657Z,1.30
2019-01-08T13:14:26.669Z,1.77
2019-01-08T13:16:52.893Z,1.80
2019-01-08T13:19:18.924Z,0.90
2019-01-08T13:21:44.913Z,0.93
2019-01-08T13:24:10.918Z,1.23
2019-01-08T13:26:37.250Z,1.57
2019-01-08T13:29:03.494Z,1.60
2019-01-08T13:31:29.739Z,1.80
2019-01-08T13:33:55.996Z,1.73
2019-01-08T13:36:22.026Z,1.90
2019-01-08T13:38:48.256Z,2.20
2019-01-08T13:41:14.271Z,2.40
2019-01-08T13:43:40.265Z,2.17
2019-01-08T13:46:06.279Z,2.03
2019-01-08T13:48:32.281Z,2.20
2019-01-08T13:50:58.325Z,1.87
2019-01-08T13:53:24.328Z,1.90
2019-01-08T13:55:50.325Z,2.13
2019-01-08T13:58:16.577Z,2.50
2019-01-08T14:00:42.581Z,1.80
2019-01-08T14:03:08.824Z,1.87
2019-01-08T14:05:34.817Z,1.33
2019-01-08T14:08:00.829Z,2.53
2019-01-08T14:10:26.827Z,1.57
2019-01-08T14:12:52.838Z,1.50
2019-01-08T14:15:18.842Z,1.67
2019-01-08T14:17:45.685Z,1.70
2019-01-08T14:20:11.686Z,1.60
2019-01-08T14:22:37.739Z,1.83
2019-01-08T14:25:03.939Z,1.17
2019-01-08T14:27:30.285Z,1.40
2019-01-08T14:29:56.525Z,1.50
2019-01-08T14:32:22.583Z,1.40
2019-01-08T14:34:48.601Z,1.43
2019-01-08T14:37:14.596Z,1.03
2019-01-08T14:39:40.650Z,0.90
2019-01-08T14:42:06.790Z,0.43
2019-01-08T14:44:32.883Z,0.90
2019-01-08T14:46:59.131Z,1.33
2019-01-08T14:49:25.397Z,0.77
2019-01-08T14:51:51.393Z,0.93
2019-01-08T14:54:17.404Z,2.37
2019-01-08T14:56:43.411Z,2.40
2019-01-08T14:59:09.421Z,2.13
2019-01-08T15:01:35.426Z,2.37
2019-01-08T15:04:01.458Z,2.60
2019-01-08T15:06:27.454Z,2.60
2019-01-08T15:08:53.481Z,2.77
2019-01-08T15:11:19.502Z,2.17
2019-01-08T15:13:45.506Z,1.77
2019-01-08T15:16:11.527Z,2.63
2019-01-08T15:18:37.522Z,2.07
2019-01-08T15:21:03.872Z,2.20
2019-01-08T15:23:30.093Z,2.70
2019-01-08T15:25:56.121Z,2.20
2019-01-08T15:28:22.121Z,2.50
2019-01-08T15:30:48.154Z,2.23
2019-01-08T15:33:14.492Z,2.47
2019-01-08T15:35:40.502Z,1.60
2019-01-08T15:38:06.518Z,1.97
2019-01-08T15:40:32.737Z,2.07
2019-01-08T15:42:59.004Z,1.53
2019-01-08T15:45:25.014Z,1.47
2019-01-08T15:47:51.021Z,1.43
2019-01-08T15:50:17.047Z,1.37
2019-01-08T15:52:43.100Z,1.50
2019-01-08T15:55:09.097Z,1.10
2019-01-08T15:57:35.346Z,1.57
2019-01-08T16:00:01.541Z,1.83
2019-01-08T16:02:27.773Z,1.53
2019-01-08T16:04:53.793Z,1.90
2019-01-08T16:07:19.801Z,1.80
2019-01-08T16:09:45.829Z,1.57
2019-01-08T16:12:12.057Z,1.60
2019-01-08T16:14:38.078Z,2.00
2019-01-08T16:17:04.311Z,1.10
2019-01-08T16:19:30.324Z,1.80
2019-01-08T16:21:56.321Z,1.30
2019-01-08T16:24:22.337Z,1.77
2019-01-08T16:26:48.344Z,1.40
2019-01-08T16:29:14.366Z,2.07
2019-01-08T16:31:40.371Z,2.30
2019-01-08T16:34:06.381Z,1.90
2019-01-08T16:36:32.388Z,1.40
2019-01-08T16:38:58.387Z,2.00
2019-01-08T16:41:24.617Z,1.50
2019-01-08T16:43:50.622Z,2.23
2019-01-08T16:46:16.638Z,1.87
2019-01-08T16:48:42.640Z,1.50
2019-01-08T16:51:08.713Z,2.30
2019-01-08T16:53:41.247Z,1.60
2019-01-08T16:56:02.638Z,1.20
2019-01-08T16:58:28.865Z,1.67
2019-01-08T17:00:54.883Z,1.60
2019-01-08T17:03:25.557Z,1.37
2019-01-08T17:05:48.854Z,1.10
2019-01-08T17:08:14.852Z,1.03
2019-01-08T17:10:40.862Z,1.40
2019-01-08T17:13:07.088Z,1.27
2019-01-08T17:15:33.326Z,0.97
2019-01-08T17:17:59.553Z,1.10
2019-01-08T17:20:25.569Z,1.20
2019-01-08T17:22:51.570Z,1.00
2019-01-08T17:25:17.824Z,0.73
2019-01-08T17:27:44.049Z,1.00
2019-01-08T17:30:10.068Z,1.67
2019-01-08T17:32:36.066Z,1.50
2019-01-08T17:35:02.380Z,2.57
2019-01-08T17:37:28.388Z,3.80
2019-01-08T17:39:54.605Z,1.90
2019-01-08T17:42:20.718Z,2.77
2019-01-08T17:44:46.705Z,2.20
2019-01-08T17:47:12.937Z,1.60
2019-01-08T17:49:38.974Z,2.50
2019-01-08T17:52:05.203Z,2.63
2019-01-08T17:54:31.473Z,1.73
2019-01-08T17:56:57.475Z,2.33
2019-01-08T17:59:23.485Z,2.07
2019-01-08T18:01:50.889Z,2.37
2019-01-08T18:04:17.141Z,2.47
2019-01-08T18:06:43.245Z,3.00
2019-01-08T18:09:09.248Z,2.67
2019-01-08T18:11:35.293Z,2.30
2019-01-08T18:14:01.309Z,2.60
2019-01-08T18:16:27.565Z,2.83
2019-01-08T18:18:53.578Z,2.20
2019-01-08T18:21:19.656Z,2.67
2019-01-08T18:23:45.737Z,3.30
2019-01-08T18:26:11.737Z,3.27
2019-01-08T18:28:37.745Z,2.17
2019-01-08T18:31:03.983Z,2.87
2019-01-08T18:33:30.213Z,2.60
2019-01-08T18:35:56.230Z,2.93
2019-01-08T18:38:22.226Z,2.53
2019-01-08T18:40:48.237Z,2.87
2019-01-08T18:43:14.465Z,2.10
2019-01-08T18:45:40.485Z,2.13
2019-01-08T18:48:06.770Z,2.20
2019-01-08T18:50:33.040Z,2.40
2019-01-08T18:52:59.281Z,2.87
2019-01-08T18:55:25.525Z,2.80
2019-01-08T18:57:51.578Z,1.87
2019-01-08T19:00:17.822Z,2.30
2019-01-08T19:02:43.821Z,1.90
2019-01-08T19:05:09.845Z,1.93
2019-01-08T19:07:35.875Z,2.50
2019-01-08T19:10:08.225Z,2.30
2019-01-08T19:12:34.259Z,2.17
2019-01-08T19:15:00.245Z,2.17
2019-01-08T19:17:26.502Z,1.80
2019-01-08T19:19:52.492Z,2.07
2019-01-08T19:22:18.504Z,1.90
2019-01-08T19:24:44.514Z,2.07
2019-01-08T19:27:10.542Z,2.53
2019-01-08T19:29:36.553Z,1.87
2019-01-08T19:32:02.552Z,3.37
2019-01-08T19:34:28.790Z,1.77
2019-01-08T19:36:54.797Z,3.10
2019-01-08T19:39:20.805Z,2.10
2019-01-08T19:41:46.805Z,2.57
2019-01-08T19:44:13.048Z,2.20
2019-01-08T19:46:39.054Z,2.17
2019-01-08T19:49:05.075Z,2.40
2019-01-08T19:51:31.094Z,2.30
2019-01-08T19:53:57.093Z,2.33
2019-01-08T19:56:23.117Z,2.77
2019-01-08T19:58:49.457Z,2.83
2019-01-08T20:01:15.469Z,3.60
2019-01-08T20:03:41.710Z,2.70
2019-01-08T20:06:07.725Z,1.77
2019-01-08T20:08:33.967Z,2.20
2019-01-08T20:11:00.205Z,1.70
2019-01-08T20:13:26.431Z,1.63
2019-01-08T20:15:52.426Z,1.80
2019-01-08T20:18:18.440Z,2.03
2019-01-08T20:20:44.545Z,1.63
2019-01-08T20:23:11.187Z,1.87
2019-01-08T20:25:37.257Z,1.97
2019-01-08T20:28:03.264Z,1.90
2019-01-08T20:30:29.277Z,2.00
2019-01-08T20:32:55.509Z,1.70
2019-01-08T20:35:21.508Z,2.20
2019-01-08T20:37:47.525Z,1.80
2019-01-08T20:40:13.539Z,2.13
2019-01-08T20:42:39.786Z,2.03
2019-01-08T20:45:05.894Z,2.10
2019-01-08T20:47:31.910Z,2.17
2019-01-08T20:49:57.913Z,2.70
2019-01-08T20:52:23.929Z,1.70
2019-01-08T20:54:49.950Z,2.20
2019-01-08T20:57:15.961Z,2.63
2019-01-08T20:59:42.196Z,1.43
2019-01-08T21:02:08.418Z,2.23
2019-01-08T21:04:35.611Z,1.83
2019-01-08T21:07:01.850Z,2.10
2019-01-08T21:09:27.838Z,1.50
2019-01-08T21:11:53.851Z,2.00
2019-01-08T21:14:19.849Z,1.37
2019-01-08T21:16:47.955Z,1.37
2019-01-08T21:19:13.786Z,1.73
2019-01-08T21:21:39.820Z,1.77
2019-01-08T21:24:05.821Z,1.57
2019-01-08T21:26:32.076Z,1.57
2019-01-08T21:28:58.081Z,1.87
2019-01-08T21:31:24.413Z,1.07
2019-01-08T21:33:51.667Z,1.20
2019-01-08T21:36:17.768Z,1.20
2019-01-08T21:38:43.796Z,1.70
2019-01-08T21:41:09.805Z,0.90
2019-01-08T21:43:36.052Z,1.20
2019-01-08T21:46:02.270Z,1.50
2019-01-08T21:48:28.294Z,1.47
2019-01-08T21:50:54.297Z,1.30
2019-01-08T21:53:20.329Z,1.57
2019-01-08T21:55:46.435Z,1.57
2019-01-08T21:58:12.445Z,1.40
2019-01-08T22:00:38.693Z,1.37
2019-01-08T22:03:05.718Z,1.43
2019-01-08T22:05:31.949Z,1.90
2019-01-08T22:07:58.070Z,1.47
2019-01-08T22:10:24.070Z,1.90
2019-01-08T22:12:50.074Z,1.40
2019-01-08T22:15:16.086Z,1.83
2019-01-08T22:17:42.087Z,2.47
2019-01-08T22:20:09.102Z,2.07
2019-01-08T22:22:35.096Z,2.20
2019-01-08T22:25:01.118Z,2.30
2019-01-08T22:27:27.122Z,2.07
2019-01-08T22:29:53.137Z,2.20
2019-01-08T22:32:19.376Z,2.00
2019-01-08T22:34:45.426Z,2.87
2019-01-08T22:37:11.724Z,1.80
2019-01-08T22:39:37.749Z,1.77
2019-01-08T22:42:04.005Z,1.83
2019-01-08T22:44:30.236Z,1.70
2019-01-08T22:46:56.256Z,1.57
2019-01-08T22:49:22.269Z,1.73
2019-01-08T22:51:48.511Z,1.80
2019-01-08T22:54:14.549Z,2.30
2019-01-08T22:56:40.791Z,2.23
2019-01-08T22:59:06.794Z,2.00
2019-01-08T23:01:34.825Z,2.10
2019-01-08T23:04:00.956Z,1.87
2019-01-08T23:06:26.929Z,2.77
2019-01-08T23:08:52.968Z,1.97
2019-01-08T23:11:18.970Z,1.83
2019-01-08T23:13:44.965Z,1.70
2019-01-08T23:16:11.001Z,1.47
2019-01-08T23:18:37.221Z,2.10
2019-01-08T23:21:03.223Z,2.40
2019-01-08T23:23:29.236Z,2.07
2019-01-08T23:25:55.250Z,2.33
2019-01-08T23:28:21.248Z,2.07
2019-01-08T23:30:47.369Z,1.67
2019-01-08T23:33:13.366Z,2.03
2019-01-08T23:35:39.480Z,1.80
2019-01-08T23:38:05.491Z,1.83
2019-01-08T23:40:31.518Z,1.83
2019-01-08T23:42:57.552Z,2.83
2019-01-08T23:45:23.633Z,1.83
2019-01-08T23:47:49.633Z,1.87
2019-01-08T23:50:15.653Z,2.03
2019-01-08T23:52:48.557Z,1.40
2019-01-08T23:55:14.775Z,1.73
2019-01-08T23:57:41.677Z,1.73
